sensor_id;sensor_type;location;lat;lon;timestamp;temperature;humidity
3713;DHT22;1872;51.406;6.856;2024-02-14T00:02:23;8.70;99.90
3713;DHT22;1872;51.406;6.856;2024-02-14T00:04:52;8.60;99.90
3713;DHT22;1872;51.406;6.856;2024-02-14T00:07:19;8.60;99.90
3713;DHT22;1872;51.406;6.856;2024-02-14T00:09:44;8.60;99.90
3713;DHT22;1872;51.406;6.856;2024-02-14T00:12:10;8.50;99.90
3713;DHT22;1872;51.406;6.856;2024-02-14T00:14:37;8.50;99.90
3713;DHT22;1872;51.406;6.856;2024-02-14T00:17:04;8.50;99.90
3713;DHT22;1872;51.406;6.856;2024-02-14T00:26:37;8.40;99.90
3713;DHT22;1872;51.406;6.856;2024-02-14T00:29:03;8.30;99.90
3713;DHT22;1872;51.406;6.856;2024-02-14T00:31:28;8.30;99.90
3713;DHT22;1872;51.406;6.856;2024-02-14T00:33:55;8.30;99.90
3713;DHT22;1872;51.406;6.856;2024-02-14T00:36:21;8.20;99.90
3713;DHT22;1872;51.406;6.856;2024-02-14T00:38:46;8.30;99.90
3713;DHT22;1872;51.406;6.856;2024-02-14T00:41:12;8.20;99.90
3713;DHT22;1872;51.406;6.856;2024-02-14T00:43:38;8.20;99.90
3713;DHT22;1872;51.406;6.856;2024-02-14T00:46:04;8.20;99.90
3713;DHT22;1872;51.406;6.856;2024-02-14T00:48:31;8.20;99.90
3713;DHT22;1872;51.406;6.856;2024-02-14T00:50:57;8.20;99.90
3713;DHT22;1872;51.406;6.856;2024-02-14T00:53:24;8.10;99.90
3713;DHT22;1872;51.406;6.856;2024-02-14T00:55:50;8.10;99.90
3713;DHT22;1872;51.406;6.856;2024-02-14T00:58:17;8.10;99.90
3713;DHT22;1872;51.406;6.856;2024-02-14T01:00:42;8.10;99.90
3713;DHT22;1872;51.406;6.856;2024-02-14T01:03:09;8.10;99.90
3713;DHT22;1872;51.406;6.856;2024-02-14T01:05:38;8.10;99.90
3713;DHT22;1872;51.406;6.856;2024-02-14T01:08:04;8.10;99.90
3713;DHT22;1872;51.406;6.856;2024-02-14T01:10:30;8.10;99.90
3713;DHT22;1872;51.406;6.856;2024-02-14T01:12:55;8.10;99.90
3713;DHT22;1872;51.406;6.856;2024-02-14T01:15:22;8.00;99.90
3713;DHT22;1872;51.406;6.856;2024-02-14T01:17:47;8.00;99.90
3713;DHT22;1872;51.406;6.856;2024-02-14T01:20:13;8.00;99.90
3713;DHT22;1872;51.406;6.856;2024-02-14T01:22:39;8.00;99.90
3713;DHT22;1872;51.406;6.856;2024-02-14T01:25:05;8.00;99.90
3713;DHT22;1872;51.406;6.856;2024-02-14T01:27:31;8.00;99.90
3713;DHT22;1872;51.406;6.856;2024-02-14T01:29:57;8.00;99.90
3713;DHT22;1872;51.406;6.856;2024-02-14T01:32:23;8.00;99.90
3713;DHT22;1872;51.406;6.856;2024-02-14T01:34:50;8.00;99.90
3713;DHT22;1872;51.406;6.856;2024-02-14T01:37:16;8.00;99.90
3713;DHT22;1872;51.406;6.856;2024-02-14T01:39:42;8.10;99.90
3713;DHT22;1872;51.406;6.856;2024-02-14T01:42:08;8.00;99.90
3713;DHT22;1872;51.406;6.856;2024-02-14T01:44:34;8.10;99.90
3713;DHT22;1872;51.406;6.856;2024-02-14T01:47:00;8.10;99.90
3713;DHT22;1872;51.406;6.856;2024-02-14T01:49:27;8.10;99.90
3713;DHT22;1872;51.406;6.856;2024-02-14T01:51:55;8.10;99.90
3713;DHT22;1872;51.406;6.856;2024-02-14T01:54:25;8.20;99.90
3713;DHT22;1872;51.406;6.856;2024-02-14T01:56:52;8.20;99.90
3713;DHT22;1872;51.406;6.856;2024-02-14T01:59:18;8.10;99.90
3713;DHT22;1872;51.406;6.856;2024-02-14T02:01:45;8.20;99.90
3713;DHT22;1872;51.406;6.856;2024-02-14T02:04:10;8.20;99.90
3713;DHT22;1872;51.406;6.856;2024-02-14T02:06:37;8.20;99.90
3713;DHT22;1872;51.406;6.856;2024-02-14T02:09:03;8.20;99.90
3713;DHT22;1872;51.406;6.856;2024-02-14T02:11:29;8.20;99.90
3713;DHT22;1872;51.406;6.856;2024-02-14T02:13:56;8.20;99.90
3713;DHT22;1872;51.406;6.856;2024-02-14T02:16:22;8.30;99.90
3713;DHT22;1872;51.406;6.856;2024-02-14T02:18:47;8.30;99.90
3713;DHT22;1872;51.406;6.856;2024-02-14T02:21:16;8.30;99.90
3713;DHT22;1872;51.406;6.856;2024-02-14T02:23:46;8.40;99.90
3713;DHT22;1872;51.406;6.856;2024-02-14T02:26:11;8.30;99.90
3713;DHT22;1872;51.406;6.856;2024-02-14T02:28:37;8.40;99.90
3713;DHT22;1872;51.406;6.856;2024-02-14T02:31:05;8.40;99.90
3713;DHT22;1872;51.406;6.856;2024-02-14T02:33:30;8.40;99.90
3713;DHT22;1872;51.406;6.856;2024-02-14T02:35:56;8.40;99.90
3713;DHT22;1872;51.406;6.856;2024-02-14T02:38:22;8.40;99.90
3713;DHT22;1872;51.406;6.856;2024-02-14T02:40:48;8.40;99.90
3713;DHT22;1872;51.406;6.856;2024-02-14T02:43:13;8.40;99.90
3713;DHT22;1872;51.406;6.856;2024-02-14T02:45:39;8.40;99.90
3713;DHT22;1872;51.406;6.856;2024-02-14T02:48:05;8.50;99.90
3713;DHT22;1872;51.406;6.856;2024-02-14T02:50:32;8.50;99.90
3713;DHT22;1872;51.406;6.856;2024-02-14T02:52:58;8.50;99.90
3713;DHT22;1872;51.406;6.856;2024-02-14T02:55:23;8.50;99.90
3713;DHT22;1872;51.406;6.856;2024-02-14T02:57:49;8.50;99.90
3713;DHT22;1872;51.406;6.856;2024-02-14T03:00:15;8.60;99.90
3713;DHT22;1872;51.406;6.856;2024-02-14T03:02:41;8.60;99.90
3713;DHT22;1872;51.406;6.856;2024-02-14T03:05:13;8.60;99.90
3713;DHT22;1872;51.406;6.856;2024-02-14T03:07:49;8.60;99.90
3713;DHT22;1872;51.406;6.856;2024-02-14T03:10:16;8.70;99.90
3713;DHT22;1872;51.406;6.856;2024-02-14T03:12:46;8.70;99.90
3713;DHT22;1872;51.406;6.856;2024-02-14T03:15:12;8.70;99.90
3713;DHT22;1872;51.406;6.856;2024-02-14T03:17:39;8.70;99.90
3713;DHT22;1872;51.406;6.856;2024-02-14T03:20:05;8.70;99.90
3713;DHT22;1872;51.406;6.856;2024-02-14T03:22:43;8.80;99.90
3713;DHT22;1872;51.406;6.856;2024-02-14T03:25:21;8.80;99.90
3713;DHT22;1872;51.406;6.856;2024-02-14T03:27:47;8.90;99.90
3713;DHT22;1872;51.406;6.856;2024-02-14T03:30:16;8.90;99.90
3713;DHT22;1872;51.406;6.856;2024-02-14T03:32:43;8.90;99.90
3713;DHT22;1872;51.406;6.856;2024-02-14T03:35:09;8.90;99.90
3713;DHT22;1872;51.406;6.856;2024-02-14T03:37:37;9.00;99.90
3713;DHT22;1872;51.406;6.856;2024-02-14T03:40:05;9.00;99.90
3713;DHT22;1872;51.406;6.856;2024-02-14T03:42:33;9.00;99.90
3713;DHT22;1872;51.406;6.856;2024-02-14T03:44:59;9.00;99.90
3713;DHT22;1872;51.406;6.856;2024-02-14T03:47:31;9.00;99.90
3713;DHT22;1872;51.406;6.856;2024-02-14T03:49:58;9.00;99.90
3713;DHT22;1872;51.406;6.856;2024-02-14T03:52:24;9.00;99.90
3713;DHT22;1872;51.406;6.856;2024-02-14T03:54:50;9.00;99.90
3713;DHT22;1872;51.406;6.856;2024-02-14T03:57:19;9.00;99.90
3713;DHT22;1872;51.406;6.856;2024-02-14T03:59:45;9.00;99.90
3713;DHT22;1872;51.406;6.856;2024-02-14T04:02:11;9.10;99.90
3713;DHT22;1872;51.406;6.856;2024-02-14T04:04:37;9.10;99.90
3713;DHT22;1872;51.406;6.856;2024-02-14T04:07:04;9.10;99.90
3713;DHT22;1872;51.406;6.856;2024-02-14T04:09:33;9.10;99.90
3713;DHT22;1872;51.406;6.856;2024-02-14T04:11:58;9.10;99.90
3713;DHT22;1872;51.406;6.856;2024-02-14T04:14:24;9.10;99.90
3713;DHT22;1872;51.406;6.856;2024-02-14T04:16:50;9.20;99.90
3713;DHT22;1872;51.406;6.856;2024-02-14T04:19:16;9.20;99.90
3713;DHT22;1872;51.406;6.856;2024-02-14T04:21:43;9.20;99.90
3713;DHT22;1872;51.406;6.856;2024-02-14T04:24:09;9.20;99.90
3713;DHT22;1872;51.406;6.856;2024-02-14T04:26:34;9.20;99.90
3713;DHT22;1872;51.406;6.856;2024-02-14T04:29:01;9.30;99.90
3713;DHT22;1872;51.406;6.856;2024-02-14T04:31:26;9.30;99.90
3713;DHT22;1872;51.406;6.856;2024-02-14T04:33:55;9.30;99.90
3713;DHT22;1872;51.406;6.856;2024-02-14T04:36:21;9.30;99.90
3713;DHT22;1872;51.406;6.856;2024-02-14T04:38:50;9.30;99.90
3713;DHT22;1872;51.406;6.856;2024-02-14T04:41:16;9.40;99.90
3713;DHT22;1872;51.406;6.856;2024-02-14T04:43:42;9.40;99.90
3713;DHT22;1872;51.406;6.856;2024-02-14T04:46:07;9.30;99.90
3713;DHT22;1872;51.406;6.856;2024-02-14T04:48:34;9.40;99.90
3713;DHT22;1872;51.406;6.856;2024-02-14T04:51:00;9.40;99.90
3713;DHT22;1872;51.406;6.856;2024-02-14T04:53:27;9.40;99.90
3713;DHT22;1872;51.406;6.856;2024-02-14T04:55:53;9.40;99.90
3713;DHT22;1872;51.406;6.856;2024-02-14T04:58:20;9.50;99.90
3713;DHT22;1872;51.406;6.856;2024-02-14T05:00:45;9.50;99.90
3713;DHT22;1872;51.406;6.856;2024-02-14T05:03:12;9.50;99.90
3713;DHT22;1872;51.406;6.856;2024-02-14T05:05:38;9.50;99.90
3713;DHT22;1872;51.406;6.856;2024-02-14T05:08:04;9.50;99.90
3713;DHT22;1872;51.406;6.856;2024-02-14T05:10:30;9.50;99.90
3713;DHT22;1872;51.406;6.856;2024-02-14T05:12:57;9.50;99.90
3713;DHT22;1872;51.406;6.856;2024-02-14T05:15:23;9.50;99.90
3713;DHT22;1872;51.406;6.856;2024-02-14T05:17:49;9.50;99.90
3713;DHT22;1872;51.406;6.856;2024-02-14T05:20:16;9.50;99.90
3713;DHT22;1872;51.406;6.856;2024-02-14T05:22:42;9.50;99.90
3713;DHT22;1872;51.406;6.856;2024-02-14T05:25:08;9.60;99.90
3713;DHT22;1872;51.406;6.856;2024-02-14T05:27:36;9.50;99.90
3713;DHT22;1872;51.406;6.856;2024-02-14T05:30:03;9.50;99.90
3713;DHT22;1872;51.406;6.856;2024-02-14T05:32:32;9.40;99.90
3713;DHT22;1872;51.406;6.856;2024-02-14T05:34:59;9.40;99.90
3713;DHT22;1872;51.406;6.856;2024-02-14T05:37:24;9.40;99.90
3713;DHT22;1872;51.406;6.856;2024-02-14T05:39:53;9.40;99.90
3713;DHT22;1872;51.406;6.856;2024-02-14T05:42:19;9.40;99.90
3713;DHT22;1872;51.406;6.856;2024-02-14T05:44:45;9.40;99.90
3713;DHT22;1872;51.406;6.856;2024-02-14T05:47:11;9.40;99.90
3713;DHT22;1872;51.406;6.856;2024-02-14T05:49:40;9.50;99.90
3713;DHT22;1872;51.406;6.856;2024-02-14T05:52:07;9.50;99.90
3713;DHT22;1872;51.406;6.856;2024-02-14T05:54:33;9.50;99.90
3713;DHT22;1872;51.406;6.856;2024-02-14T05:56:59;9.50;99.90
3713;DHT22;1872;51.406;6.856;2024-02-14T05:59:26;9.50;99.90
3713;DHT22;1872;51.406;6.856;2024-02-14T06:01:52;9.50;99.90
3713;DHT22;1872;51.406;6.856;2024-02-14T06:04:18;9.50;99.90
3713;DHT22;1872;51.406;6.856;2024-02-14T06:06:44;9.50;99.90
3713;DHT22;1872;51.406;6.856;2024-02-14T06:09:10;9.50;99.90
3713;DHT22;1872;51.406;6.856;2024-02-14T06:11:37;9.50;99.90
3713;DHT22;1872;51.406;6.856;2024-02-14T06:14:08;9.60;99.90
3713;DHT22;1872;51.406;6.856;2024-02-14T06:16:34;9.50;99.90
3713;DHT22;1872;51.406;6.856;2024-02-14T06:19:00;9.60;99.90
3713;DHT22;1872;51.406;6.856;2024-02-14T06:21:26;9.60;99.90
3713;DHT22;1872;51.406;6.856;2024-02-14T06:23:52;9.50;99.90
3713;DHT22;1872;51.406;6.856;2024-02-14T06:26:19;9.50;99.90
3713;DHT22;1872;51.406;6.856;2024-02-14T06:28:45;9.50;99.90
3713;DHT22;1872;51.406;6.856;2024-02-14T06:31:11;9.50;99.90
3713;DHT22;1872;51.406;6.856;2024-02-14T06:33:37;9.50;99.90
3713;DHT22;1872;51.406;6.856;2024-02-14T06:36:03;9.50;99.90
3713;DHT22;1872;51.406;6.856;2024-02-14T06:38:31;9.40;99.90
3713;DHT22;1872;51.406;6.856;2024-02-14T06:40:56;9.50;99.90
3713;DHT22;1872;51.406;6.856;2024-02-14T06:43:22;9.40;99.90
3713;DHT22;1872;51.406;6.856;2024-02-14T06:45:48;9.50;99.90
3713;DHT22;1872;51.406;6.856;2024-02-14T06:48:14;9.50;99.90
3713;DHT22;1872;51.406;6.856;2024-02-14T06:50:39;9.50;99.90
3713;DHT22;1872;51.406;6.856;2024-02-14T06:53:06;9.50;99.90
3713;DHT22;1872;51.406;6.856;2024-02-14T06:55:32;9.50;99.90
3713;DHT22;1872;51.406;6.856;2024-02-14T06:58:00;9.60;99.90
3713;DHT22;1872;51.406;6.856;2024-02-14T07:00:26;9.60;99.90
3713;DHT22;1872;51.406;6.856;2024-02-14T07:02:53;9.60;99.90
3713;DHT22;1872;51.406;6.856;2024-02-14T07:05:19;9.60;99.90
3713;DHT22;1872;51.406;6.856;2024-02-14T07:07:45;9.60;99.90
3713;DHT22;1872;51.406;6.856;2024-02-14T07:10:11;9.60;99.90
3713;DHT22;1872;51.406;6.856;2024-02-14T07:12:37;9.70;99.90
3713;DHT22;1872;51.406;6.856;2024-02-14T07:15:04;9.70;99.90
3713;DHT22;1872;51.406;6.856;2024-02-14T07:17:30;9.70;99.90
3713;DHT22;1872;51.406;6.856;2024-02-14T07:19:56;9.70;99.90
3713;DHT22;1872;51.406;6.856;2024-02-14T07:22:22;9.70;99.90
3713;DHT22;1872;51.406;6.856;2024-02-14T07:24:48;9.70;99.90
3713;DHT22;1872;51.406;6.856;2024-02-14T07:27:15;9.70;99.90
3713;DHT22;1872;51.406;6.856;2024-02-14T07:29:41;9.70;99.90
3713;DHT22;1872;51.406;6.856;2024-02-14T07:32:06;9.70;99.90
3713;DHT22;1872;51.406;6.856;2024-02-14T07:34:32;9.70;99.90
3713;DHT22;1872;51.406;6.856;2024-02-14T07:36:58;9.70;99.90
3713;DHT22;1872;51.406;6.856;2024-02-14T07:39:24;9.70;99.90
3713;DHT22;1872;51.406;6.856;2024-02-14T07:41:50;9.70;99.90
3713;DHT22;1872;51.406;6.856;2024-02-14T07:44:17;9.70;99.90
3713;DHT22;1872;51.406;6.856;2024-02-14T07:46:42;9.70;99.90
3713;DHT22;1872;51.406;6.856;2024-02-14T07:49:08;9.70;99.90
3713;DHT22;1872;51.406;6.856;2024-02-14T07:51:35;9.80;99.90
3713;DHT22;1872;51.406;6.856;2024-02-14T07:54:04;9.80;99.90
3713;DHT22;1872;51.406;6.856;2024-02-14T07:56:30;9.80;99.90
3713;DHT22;1872;51.406;6.856;2024-02-14T07:58:56;9.80;99.90
3713;DHT22;1872;51.406;6.856;2024-02-14T08:01:22;9.80;99.90
3713;DHT22;1872;51.406;6.856;2024-02-14T08:03:48;9.90;99.90
3713;DHT22;1872;51.406;6.856;2024-02-14T08:06:14;9.80;99.90
3713;DHT22;1872;51.406;6.856;2024-02-14T08:08:39;9.90;99.90
3713;DHT22;1872;51.406;6.856;2024-02-14T08:11:05;9.90;99.90
3713;DHT22;1872;51.406;6.856;2024-02-14T08:13:31;9.90;99.90
3713;DHT22;1872;51.406;6.856;2024-02-14T08:15:57;9.90;99.90
3713;DHT22;1872;51.406;6.856;2024-02-14T08:18:24;10.00;99.90
3713;DHT22;1872;51.406;6.856;2024-02-14T08:20:49;10.00;99.90
3713;DHT22;1872;51.406;6.856;2024-02-14T08:23:15;10.00;99.90
3713;DHT22;1872;51.406;6.856;2024-02-14T08:25:42;10.00;99.90
3713;DHT22;1872;51.406;6.856;2024-02-14T08:28:08;10.10;99.90
3713;DHT22;1872;51.406;6.856;2024-02-14T08:30:34;10.10;99.90
3713;DHT22;1872;51.406;6.856;2024-02-14T08:33:00;10.20;99.90
3713;DHT22;1872;51.406;6.856;2024-02-14T08:35:25;10.20;99.90
3713;DHT22;1872;51.406;6.856;2024-02-14T08:37:51;10.20;99.90
3713;DHT22;1872;51.406;6.856;2024-02-14T08:40:17;10.20;99.90
3713;DHT22;1872;51.406;6.856;2024-02-14T08:42:42;10.20;99.90
3713;DHT22;1872;51.406;6.856;2024-02-14T08:45:08;10.20;99.90
3713;DHT22;1872;51.406;6.856;2024-02-14T08:47:36;10.30;99.90
3713;DHT22;1872;51.406;6.856;2024-02-14T08:50:05;10.30;99.90
3713;DHT22;1872;51.406;6.856;2024-02-14T08:52:31;10.30;99.90
3713;DHT22;1872;51.406;6.856;2024-02-14T08:54:57;10.30;99.90
3713;DHT22;1872;51.406;6.856;2024-02-14T08:57:23;10.30;99.90
3713;DHT22;1872;51.406;6.856;2024-02-14T08:59:49;10.40;99.90
3713;DHT22;1872;51.406;6.856;2024-02-14T09:02:16;10.40;99.90
3713;DHT22;1872;51.406;6.856;2024-02-14T09:04:42;10.40;99.90
3713;DHT22;1872;51.406;6.856;2024-02-14T09:07:08;10.40;99.90
3713;DHT22;1872;51.406;6.856;2024-02-14T09:09:34;10.50;99.90
3713;DHT22;1872;51.406;6.856;2024-02-14T09:11:59;10.50;99.90
3713;DHT22;1872;51.406;6.856;2024-02-14T09:14:28;10.50;99.90
3713;DHT22;1872;51.406;6.856;2024-02-14T09:16:54;10.50;99.90
3713;DHT22;1872;51.406;6.856;2024-02-14T09:19:19;10.50;99.90
3713;DHT22;1872;51.406;6.856;2024-02-14T09:21:45;10.50;99.90
3713;DHT22;1872;51.406;6.856;2024-02-14T09:24:11;10.50;99.90
3713;DHT22;1872;51.406;6.856;2024-02-14T09:26:38;10.50;99.90
3713;DHT22;1872;51.406;6.856;2024-02-14T09:29:04;10.50;99.90
3713;DHT22;1872;51.406;6.856;2024-02-14T09:31:30;10.60;99.90
3713;DHT22;1872;51.406;6.856;2024-02-14T09:33:56;10.60;99.90
3713;DHT22;1872;51.406;6.856;2024-02-14T09:36:22;10.60;99.90
3713;DHT22;1872;51.406;6.856;2024-02-14T09:38:48;10.60;99.90
3713;DHT22;1872;51.406;6.856;2024-02-14T09:43:49;10.60;99.90
3713;DHT22;1872;51.406;6.856;2024-02-14T09:46:15;10.70;99.90
3713;DHT22;1872;51.406;6.856;2024-02-14T09:48:44;10.70;99.90
3713;DHT22;1872;51.406;6.856;2024-02-14T09:51:11;10.70;99.90
3713;DHT22;1872;51.406;6.856;2024-02-14T09:53:38;10.80;99.90
3713;DHT22;1872;51.406;6.856;2024-02-14T09:56:05;10.90;99.90
3713;DHT22;1872;51.406;6.856;2024-02-14T09:58:32;10.90;99.90
3713;DHT22;1872;51.406;6.856;2024-02-14T10:00:57;11.00;99.90
3713;DHT22;1872;51.406;6.856;2024-02-14T10:03:24;11.00;99.90
3713;DHT22;1872;51.406;6.856;2024-02-14T10:05:49;11.10;99.90
3713;DHT22;1872;51.406;6.856;2024-02-14T10:08:16;11.10;99.90
3713;DHT22;1872;51.406;6.856;2024-02-14T10:10:43;11.20;99.90
3713;DHT22;1872;51.406;6.856;2024-02-14T10:13:09;11.20;99.90
3713;DHT22;1872;51.406;6.856;2024-02-14T10:15:35;11.20;99.90
3713;DHT22;1872;51.406;6.856;2024-02-14T10:18:02;11.20;99.90
3713;DHT22;1872;51.406;6.856;2024-02-14T10:20:28;11.30;99.90
3713;DHT22;1872;51.406;6.856;2024-02-14T10:23:02;11.30;99.90
3713;DHT22;1872;51.406;6.856;2024-02-14T10:25:29;11.20;99.90
3713;DHT22;1872;51.406;6.856;2024-02-14T10:27:54;11.20;99.90
3713;DHT22;1872;51.406;6.856;2024-02-14T10:30:20;11.20;99.90
3713;DHT22;1872;51.406;6.856;2024-02-14T10:32:47;11.20;99.90
3713;DHT22;1872;51.406;6.856;2024-02-14T10:35:14;11.20;99.90
3713;DHT22;1872;51.406;6.856;2024-02-14T10:37:40;11.20;99.90
3713;DHT22;1872;51.406;6.856;2024-02-14T10:40:07;11.20;99.90
3713;DHT22;1872;51.406;6.856;2024-02-14T10:42:34;11.20;99.90
3713;DHT22;1872;51.406;6.856;2024-02-14T10:45:01;11.20;99.90
3713;DHT22;1872;51.406;6.856;2024-02-14T10:47:37;11.20;99.90
3713;DHT22;1872;51.406;6.856;2024-02-14T10:50:06;11.20;99.90
3713;DHT22;1872;51.406;6.856;2024-02-14T10:52:34;11.20;99.90
3713;DHT22;1872;51.406;6.856;2024-02-14T10:55:05;11.20;99.90
3713;DHT22;1872;51.406;6.856;2024-02-14T10:57:31;11.20;99.90
3713;DHT22;1872;51.406;6.856;2024-02-14T11:00:04;11.30;99.90
3713;DHT22;1872;51.406;6.856;2024-02-14T11:02:30;11.30;99.90
3713;DHT22;1872;51.406;6.856;2024-02-14T11:04:58;11.40;99.90
3713;DHT22;1872;51.406;6.856;2024-02-14T11:07:24;11.40;99.90
3713;DHT22;1872;51.406;6.856;2024-02-14T11:10:06;11.50;99.90
3713;DHT22;1872;51.406;6.856;2024-02-14T11:12:33;11.60;99.90
3713;DHT22;1872;51.406;6.856;2024-02-14T11:15:00;11.60;99.90
3713;DHT22;1872;51.406;6.856;2024-02-14T11:17:26;11.70;99.90
3713;DHT22;1872;51.406;6.856;2024-02-14T11:19:53;11.70;99.90
3713;DHT22;1872;51.406;6.856;2024-02-14T11:22:20;11.70;99.90
3713;DHT22;1872;51.406;6.856;2024-02-14T11:24:49;11.80;99.90
3713;DHT22;1872;51.406;6.856;2024-02-14T11:27:17;11.80;99.90
3713;DHT22;1872;51.406;6.856;2024-02-14T11:29:52;11.90;99.90
3713;DHT22;1872;51.406;6.856;2024-02-14T11:32:18;11.90;99.90
3713;DHT22;1872;51.406;6.856;2024-02-14T11:34:53;11.90;99.90
3713;DHT22;1872;51.406;6.856;2024-02-14T11:37:19;11.90;99.90
3713;DHT22;1872;51.406;6.856;2024-02-14T11:39:46;12.00;99.90
3713;DHT22;1872;51.406;6.856;2024-02-14T11:42:12;12.00;99.90
3713;DHT22;1872;51.406;6.856;2024-02-14T11:44:40;12.00;99.90
3713;DHT22;1872;51.406;6.856;2024-02-14T11:47:09;12.00;99.90
3713;DHT22;1872;51.406;6.856;2024-02-14T11:49:37;12.00;99.90
3713;DHT22;1872;51.406;6.856;2024-02-14T11:52:04;12.00;99.90
3713;DHT22;1872;51.406;6.856;2024-02-14T11:54:30;12.00;99.90
3713;DHT22;1872;51.406;6.856;2024-02-14T11:56:56;12.00;99.90
3713;DHT22;1872;51.406;6.856;2024-02-14T11:59:22;12.10;99.90
3713;DHT22;1872;51.406;6.856;2024-02-14T12:01:49;12.10;99.90
3713;DHT22;1872;51.406;6.856;2024-02-14T12:04:17;12.20;99.90
3713;DHT22;1872;51.406;6.856;2024-02-14T12:06:43;12.30;99.90
3713;DHT22;1872;51.406;6.856;2024-02-14T12:09:09;12.30;99.90
3713;DHT22;1872;51.406;6.856;2024-02-14T12:11:39;12.30;99.90
3713;DHT22;1872;51.406;6.856;2024-02-14T12:14:06;12.30;99.90
3713;DHT22;1872;51.406;6.856;2024-02-14T12:16:34;12.40;99.90
3713;DHT22;1872;51.406;6.856;2024-02-14T12:19:04;12.40;99.90
3713;DHT22;1872;51.406;6.856;2024-02-14T12:21:34;12.30;99.90
3713;DHT22;1872;51.406;6.856;2024-02-14T12:24:00;12.30;99.90
3713;DHT22;1872;51.406;6.856;2024-02-14T12:26:26;12.20;99.90
3713;DHT22;1872;51.406;6.856;2024-02-14T12:28:53;12.20;99.90
3713;DHT22;1872;51.406;6.856;2024-02-14T12:31:23;12.10;99.90
3713;DHT22;1872;51.406;6.856;2024-02-14T12:33:49;12.00;99.90
3713;DHT22;1872;51.406;6.856;2024-02-14T12:36:15;12.00;99.90
3713;DHT22;1872;51.406;6.856;2024-02-14T12:38:40;12.00;99.90
3713;DHT22;1872;51.406;6.856;2024-02-14T12:41:06;12.00;99.90
3713;DHT22;1872;51.406;6.856;2024-02-14T12:43:32;12.00;99.90
3713;DHT22;1872;51.406;6.856;2024-02-14T12:45:57;12.00;99.90
3713;DHT22;1872;51.406;6.856;2024-02-14T12:48:24;12.00;99.90
3713;DHT22;1872;51.406;6.856;2024-02-14T12:50:53;12.00;99.90
3713;DHT22;1872;51.406;6.856;2024-02-14T12:53:20;12.00;99.90
3713;DHT22;1872;51.406;6.856;2024-02-14T12:55:46;12.00;99.90
3713;DHT22;1872;51.406;6.856;2024-02-14T12:58:13;12.00;99.90
3713;DHT22;1872;51.406;6.856;2024-02-14T13:00:38;12.00;99.90
3713;DHT22;1872;51.406;6.856;2024-02-14T13:03:04;11.90;99.90
3713;DHT22;1872;51.406;6.856;2024-02-14T13:05:30;11.90;99.90
3713;DHT22;1872;51.406;6.856;2024-02-14T13:07:56;11.90;99.90
3713;DHT22;1872;51.406;6.856;2024-02-14T13:10:22;11.90;99.90
3713;DHT22;1872;51.406;6.856;2024-02-14T13:12:48;11.90;99.90
3713;DHT22;1872;51.406;6.856;2024-02-14T13:15:15;11.90;99.90
3713;DHT22;1872;51.406;6.856;2024-02-14T13:17:42;11.90;99.90
3713;DHT22;1872;51.406;6.856;2024-02-14T13:20:08;12.00;99.90
3713;DHT22;1872;51.406;6.856;2024-02-14T13:22:34;12.00;99.90
3713;DHT22;1872;51.406;6.856;2024-02-14T13:24:59;12.00;99.90
3713;DHT22;1872;51.406;6.856;2024-02-14T13:27:30;12.00;99.90
3713;DHT22;1872;51.406;6.856;2024-02-14T13:29:56;12.00;99.90
3713;DHT22;1872;51.406;6.856;2024-02-14T13:32:21;12.00;99.90
3713;DHT22;1872;51.406;6.856;2024-02-14T13:34:47;12.00;99.90
3713;DHT22;1872;51.406;6.856;2024-02-14T13:37:13;12.00;99.90
3713;DHT22;1872;51.406;6.856;2024-02-14T13:39:41;12.10;99.90
3713;DHT22;1872;51.406;6.856;2024-02-14T13:42:06;12.10;99.90
3713;DHT22;1872;51.406;6.856;2024-02-14T13:44:33;12.10;99.90
3713;DHT22;1872;51.406;6.856;2024-02-14T13:46:59;12.10;99.90
3713;DHT22;1872;51.406;6.856;2024-02-14T13:49:25;12.10;99.90
3713;DHT22;1872;51.406;6.856;2024-02-14T13:51:52;12.10;99.90
3713;DHT22;1872;51.406;6.856;2024-02-14T13:54:21;12.10;99.90
3713;DHT22;1872;51.406;6.856;2024-02-14T13:56:49;12.10;99.90
3713;DHT22;1872;51.406;6.856;2024-02-14T13:59:15;12.10;99.90
3713;DHT22;1872;51.406;6.856;2024-02-14T14:01:41;12.10;99.90
3713;DHT22;1872;51.406;6.856;2024-02-14T14:04:07;12.10;99.90
3713;DHT22;1872;51.406;6.856;2024-02-14T14:06:33;12.10;99.90
3713;DHT22;1872;51.406;6.856;2024-02-14T14:08:59;12.10;99.90
3713;DHT22;1872;51.406;6.856;2024-02-14T14:11:25;12.10;99.90
3713;DHT22;1872;51.406;6.856;2024-02-14T14:13:51;12.10;99.90
3713;DHT22;1872;51.406;6.856;2024-02-14T14:16:17;12.00;99.90
3713;DHT22;1872;51.406;6.856;2024-02-14T14:18:43;12.00;99.90
3713;DHT22;1872;51.406;6.856;2024-02-14T14:21:08;12.00;99.90
3713;DHT22;1872;51.406;6.856;2024-02-14T14:23:34;12.00;99.90
3713;DHT22;1872;51.406;6.856;2024-02-14T14:26:00;12.00;99.90
3713;DHT22;1872;51.406;6.856;2024-02-14T14:28:26;12.00;99.90
3713;DHT22;1872;51.406;6.856;2024-02-14T14:30:53;12.00;99.90
3713;DHT22;1872;51.406;6.856;2024-02-14T14:33:20;12.00;99.90
3713;DHT22;1872;51.406;6.856;2024-02-14T14:35:46;12.00;99.90
3713;DHT22;1872;51.406;6.856;2024-02-14T14:38:14;11.90;99.90
3713;DHT22;1872;51.406;6.856;2024-02-14T14:40:40;11.90;99.90
3713;DHT22;1872;51.406;6.856;2024-02-14T14:43:06;11.90;99.90
3713;DHT22;1872;51.406;6.856;2024-02-14T14:45:33;11.90;99.90
3713;DHT22;1872;51.406;6.856;2024-02-14T14:47:58;11.90;99.90
3713;DHT22;1872;51.406;6.856;2024-02-14T14:50:24;11.90;99.90
3713;DHT22;1872;51.406;6.856;2024-02-14T14:52:51;11.90;99.90
3713;DHT22;1872;51.406;6.856;2024-02-14T14:55:18;11.80;99.90
3713;DHT22;1872;51.406;6.856;2024-02-14T14:57:44;11.80;99.90
3713;DHT22;1872;51.406;6.856;2024-02-14T15:00:10;11.80;99.90
3713;DHT22;1872;51.406;6.856;2024-02-14T15:02:43;11.80;99.90
3713;DHT22;1872;51.406;6.856;2024-02-14T15:05:12;11.80;99.90
3713;DHT22;1872;51.406;6.856;2024-02-14T15:07:39;11.80;99.90
3713;DHT22;1872;51.406;6.856;2024-02-14T15:10:05;11.80;99.90
3713;DHT22;1872;51.406;6.856;2024-02-14T15:12:33;11.70;99.90
3713;DHT22;1872;51.406;6.856;2024-02-14T15:15:04;11.70;99.90
3713;DHT22;1872;51.406;6.856;2024-02-14T15:17:30;11.70;99.90
3713;DHT22;1872;51.406;6.856;2024-02-14T15:19:56;11.60;99.90
3713;DHT22;1872;51.406;6.856;2024-02-14T15:22:23;11.70;99.90
3713;DHT22;1872;51.406;6.856;2024-02-14T15:24:50;11.60;99.90
3713;DHT22;1872;51.406;6.856;2024-02-14T15:27:17;11.60;99.90
3713;DHT22;1872;51.406;6.856;2024-02-14T15:29:49;11.60;99.90
3713;DHT22;1872;51.406;6.856;2024-02-14T15:32:33;11.70;99.90
3713;DHT22;1872;51.406;6.856;2024-02-14T15:35:18;11.60;99.90
3713;DHT22;1872;51.406;6.856;2024-02-14T15:37:44;11.60;99.90
3713;DHT22;1872;51.406;6.856;2024-02-14T15:40:14;11.70;99.90
3713;DHT22;1872;51.406;6.856;2024-02-14T15:42:41;11.70;99.90
3713;DHT22;1872;51.406;6.856;2024-02-14T15:45:07;11.60;99.90
3713;DHT22;1872;51.406;6.856;2024-02-14T15:47:32;11.70;99.90
3713;DHT22;1872;51.406;6.856;2024-02-14T15:49:58;11.70;99.90
3713;DHT22;1872;51.406;6.856;2024-02-14T15:52:24;11.70;99.90
3713;DHT22;1872;51.406;6.856;2024-02-14T15:54:49;11.70;99.90
3713;DHT22;1872;51.406;6.856;2024-02-14T15:57:17;11.60;99.90
3713;DHT22;1872;51.406;6.856;2024-02-14T15:59:43;11.70;99.90
3713;DHT22;1872;51.406;6.856;2024-02-14T16:02:09;11.70;99.90
3713;DHT22;1872;51.406;6.856;2024-02-14T16:04:35;11.60;99.90
3713;DHT22;1872;51.406;6.856;2024-02-14T16:07:01;11.70;99.90
3713;DHT22;1872;51.406;6.856;2024-02-14T16:09:26;11.70;99.90
3713;DHT22;1872;51.406;6.856;2024-02-14T16:11:53;11.70;99.90
3713;DHT22;1872;51.406;6.856;2024-02-14T16:14:19;11.70;99.90
3713;DHT22;1872;51.406;6.856;2024-02-14T16:16:45;11.70;99.90